Time;durP1;ratioP1;P1;durP2;ratioP2;P2;SDS_P1;SDS_P2;PMS_P1;PMS_P2;Temp;Humidity;BMP_temperature;BMP_pressure;BME280_temperature;BME280_humidity;BME280_pressure;Samples;Min_cycle;Max_cycle;Signal;HPM_P1;HPM_P2
2022/09/29 00:01:13;;;;;;;29.35;19.80;;;8.70;99.90;;;;;;5077888;28;20191;-86
2022/09/29 00:03:43;;;;;;;25.95;17.92;;;8.70;99.90;;;;;;5062048;28;20271;-86
2022/09/29 00:06:14;;;;;;;27.13;18.15;;;8.80;99.90;;;;;;5074320;28;20623;-87
2022/09/29 00:08:42;;;;;;;32.92;20.15;;;8.70;99.90;;;;;;5077173;28;20196;-87
2022/09/29 00:11:14;;;;;;;30.00;18.75;;;8.70;99.90;;;;;;5082532;28;20222;-87
2022/09/29 00:13:43;;;;;;;27.00;18.55;;;8.70;99.90;;;;;;5079026;28;20643;-87
2022/09/29 00:16:12;;;;;;;28.20;18.30;;;8.70;99.90;;;;;;5063543;28;20207;-87
2022/09/29 00:18:40;;;;;;;30.40;17.30;;;8.80;99.90;;;;;;5077467;28;20234;-87
2022/09/29 00:21:10;;;;;;;28.20;17.65;;;8.80;99.90;;;;;;5061414;28;20196;-87
2022/09/29 00:23:39;;;;;;;26.63;18.13;;;8.80;99.90;;;;;;5058554;28;20193;-87
2022/09/29 00:26:09;;;;;;;24.17;17.33;;;8.80;99.90;;;;;;5056607;28;20203;-88
2022/09/29 00:28:41;;;;;;;23.27;15.65;;;8.90;99.90;;;;;;5023270;28;20211;-87
2022/09/29 00:31:11;;;;;;;42.67;17.85;;;8.80;99.90;;;;;;5057240;28;20208;-87
2022/09/29 00:33:40;;;;;;;22.38;16.75;;;8.80;99.90;;;;;;5058844;28;20181;-88
2022/09/29 00:36:11;;;;;;;27.02;17.45;;;8.80;99.90;;;;;;5023440;28;20216;-87
2022/09/29 00:38:40;;;;;;;27.73;17.50;;;8.80;99.90;;;;;;5058421;28;20576;-87
2022/09/29 00:41:16;;;;;;;22.70;16.30;;;8.80;99.90;;;;;;5059837;28;20197;-87
2022/09/29 00:43:56;;;;;;;26.30;17.15;;;8.70;99.90;;;;;;5025618;28;20698;-87
2022/09/29 00:46:32;;;;;;;23.90;16.23;;;8.70;99.90;;;;;;5059884;28;20192;-87
2022/09/29 00:49:05;;;;;;;23.38;15.55;;;8.70;99.90;;;;;;5059063;28;20184;-87
2022/09/29 00:51:36;;;;;;;29.50;17.90;;;8.60;99.90;;;;;;5074292;28;20275;-87
2022/09/29 00:54:05;;;;;;;25.75;17.73;;;8.60;99.90;;;;;;5079631;28;20290;-87
2022/09/29 00:56:34;;;;;;;25.20;17.40;;;8.50;99.90;;;;;;5060788;28;20204;-87
2022/09/29 00:59:07;;;;;;;23.50;16.00;;;8.50;99.90;;;;;;5092376;28;20208;-87
2022/09/29 01:01:42;;;;;;;31.83;17.08;;;8.50;99.90;;;;;;5061296;28;20271;-86
2022/09/29 01:04:14;;;;;;;25.58;18.23;;;8.50;99.90;;;;;;5077356;28;20219;-86
2022/09/29 01:06:45;;;;;;;33.85;19.85;;;8.50;99.90;;;;;;5077249;28;20224;-85
2022/09/29 01:09:16;;;;;;;28.67;17.42;;;8.40;99.90;;;;;;5059970;28;20609;-85
2022/09/29 01:11:45;;;;;;;30.35;17.08;;;8.40;99.90;;;;;;5063532;28;20220;-86
2022/09/29 01:14:15;;;;;;;31.55;19.08;;;8.50;99.90;;;;;;5077290;28;20219;-85
2022/09/29 01:16:44;;;;;;;33.78;18.83;;;8.50;99.90;;;;;;5066964;28;20613;-86
2022/09/29 01:19:16;;;;;;;34.28;18.25;;;8.40;99.90;;;;;;5075732;28;20210;-85
2022/09/29 01:21:57;;;;;;;30.40;18.40;;;8.30;99.90;;;;;;5069048;28;20183;-86
2022/09/29 01:24:52;;;;;;;28.98;18.00;;;8.40;99.90;;;;;;5060000;28;20188;-85
2022/09/29 01:28:08;;;;;;;34.95;19.02;;;8.40;99.90;;;;;;5073911;28;20207;-87
2022/09/29 01:31:01;;;;;;;35.47;19.38;;;8.40;99.90;;;;;;5065266;28;20689;-85
2022/09/29 01:33:37;;;;;;;52.25;18.67;;;8.30;99.90;;;;;;5076278;28;20648;-86
2022/09/29 01:36:12;;;;;;;33.08;18.98;;;8.40;99.90;;;;;;5075692;28;20271;-86
2022/09/29 01:38:55;;;;;;;67.18;19.90;;;8.50;99.90;;;;;;5055379;28;20204;-86
2022/09/29 01:41:30;;;;;;;36.10;19.77;;;8.40;99.90;;;;;;5047550;28;20640;-86
2022/09/29 01:44:06;;;;;;;26.75;17.00;;;8.40;99.90;;;;;;5054076;28;20204;-86
2022/09/29 01:46:39;;;;;;;45.78;18.77;;;8.40;99.90;;;;;;5050842;28;20203;-86
2022/09/29 01:49:10;;;;;;;57.08;18.75;;;8.40;99.90;;;;;;5074567;28;20199;-85
2022/09/29 01:51:42;;;;;;;30.50;17.35;;;8.30;99.90;;;;;;5073460;28;20559;-85
2022/09/29 01:54:18;;;;;;;44.78;17.40;;;8.30;99.90;;;;;;5057288;28;20427;-86
2022/09/29 01:56:51;;;;;;;50.58;19.30;;;8.20;99.90;;;;;;5073679;28;20198;-86
2022/09/29 01:59:25;;;;;;;59.00;19.15;;;8.20;99.90;;;;;;5074584;28;20180;-85
2022/09/29 02:02:00;;;;;;;68.70;21.60;;;8.10;99.90;;;;;;5058432;28;20188;-86
2022/09/29 02:04:32;;;;;;;57.35;20.08;;;8.00;99.90;;;;;;5073533;28;20198;-85
2022/09/29 02:07:03;;;;;;;34.75;19.55;;;8.00;99.90;;;;;;5055582;28;20212;-85
2022/09/29 02:09:39;;;;;;;26.95;17.88;;;8.10;99.90;;;;;;5056128;28;20180;-85
2022/09/29 02:12:13;;;;;;;45.63;18.33;;;8.10;99.90;;;;;;5056165;28;20238;-85
2022/09/29 02:14:45;;;;;;;45.80;20.05;;;8.10;99.90;;;;;;5073951;28;20215;-85
2022/09/29 02:17:18;;;;;;;46.35;19.02;;;8.20;99.90;;;;;;5055820;28;20204;-85
2022/09/29 02:19:48;;;;;;;34.53;17.55;;;8.10;99.90;;;;;;5074683;28;20638;-85
2022/09/29 02:22:16;;;;;;;30.92;17.65;;;8.10;99.90;;;;;;5075409;28;20199;-85
2022/09/29 02:24:44;;;;;;;35.55;19.25;;;8.10;99.90;;;;;;5074243;28;20199;-85
2022/09/29 02:27:12;;;;;;;35.53;17.85;;;8.10;99.90;;;;;;5075503;28;20200;-85
2022/09/29 02:29:44;;;;;;;37.92;19.98;;;8.10;99.90;;;;;;5075901;28;20214;-85
2022/09/29 02:32:13;;;;;;;33.45;18.23;;;8.20;99.90;;;;;;5061056;28;20298;-85
2022/09/29 02:34:44;;;;;;;70.93;18.83;;;8.20;99.90;;;;;;5056318;28;20184;-85
2022/09/29 02:37:31;;;;;;;69.47;20.48;;;8.10;99.90;;;;;;5073821;28;20191;-86
2022/09/29 02:40:10;;;;;;;138.98;22.48;;;8.00;99.90;;;;;;5092057;28;20175;-85
2022/09/29 02:42:45;;;;;;;31.67;17.45;;;8.10;99.90;;;;;;5057175;28;20180;-85
2022/09/29 02:45:24;;;;;;;103.18;19.25;;;8.10;99.90;;;;;;5064892;28;20184;-86
2022/09/29 02:48:13;;;;;;;33.55;17.00;;;8.10;99.90;;;;;;5056869;28;20188;-85
2022/09/29 02:50:54;;;;;;;161.75;67.53;;;8.10;99.90;;;;;;5057663;28;20188;-85
2022/09/29 02:53:33;;;;;;;148.48;32.88;;;8.20;99.90;;;;;;5073933;28;20187;-86
2022/09/29 02:56:11;;;;;;;181.73;40.67;;;8.10;99.90;;;;;;5056438;28;20192;-85
2022/09/29 02:58:45;;;;;;;93.38;45.85;;;8.10;99.90;;;;;;5075980;28;20210;-85
2022/09/29 03:01:15;;;;;;;59.42;27.30;;;8.10;99.90;;;;;;5077850;28;20198;-85
2022/09/29 03:03:45;;;;;;;110.97;21.77;;;8.10;99.90;;;;;;5078152;28;20249;-85
2022/09/29 03:06:14;;;;;;;42.15;17.75;;;8.10;99.90;;;;;;5040533;28;20242;-85
2022/09/29 03:08:45;;;;;;;43.15;18.40;;;8.20;99.90;;;;;;5072087;28;20571;-85
2022/09/29 03:11:13;;;;;;;194.90;22.05;;;8.20;99.90;;;;;;5051387;28;20242;-85
2022/09/29 03:13:41;;;;;;;116.15;18.55;;;8.10;99.90;;;;;;5054938;28;20196;-85
2022/09/29 03:16:09;;;;;;;56.97;18.38;;;8.00;99.90;;;;;;5038383;28;20208;-85
2022/09/29 03:18:37;;;;;;;79.43;19.30;;;8.00;99.90;;;;;;5071468;28;20203;-85
2022/09/29 03:21:12;;;;;;;141.43;19.50;;;7.90;99.90;;;;;;5038196;28;20185;-85
2022/09/29 03:23:40;;;;;;;70.32;17.58;;;8.00;99.90;;;;;;5053798;28;20575;-85
2022/09/29 03:26:08;;;;;;;46.83;17.50;;;8.00;99.90;;;;;;5071002;28;20568;-85
2022/09/29 03:28:36;;;;;;;84.68;19.05;;;8.10;99.90;;;;;;5054861;28;20200;-85
2022/09/29 03:31:06;;;;;;;89.72;19.38;;;8.00;99.90;;;;;;5054961;28;20210;-85
2022/09/29 03:33:34;;;;;;;108.22;18.75;;;8.10;99.90;;;;;;5053974;28;20619;-85
2022/09/29 03:36:02;;;;;;;112.82;18.95;;;8.00;99.90;;;;;;5072639;28;20203;-85
2022/09/29 03:38:32;;;;;;;94.03;19.58;;;8.00;99.90;;;;;;5073182;28;20211;-85
2022/09/29 03:41:00;;;;;;;72.75;18.65;;;8.00;99.90;;;;;;5054583;28;20199;-85
2022/09/29 03:43:28;;;;;;;62.17;17.17;;;8.10;99.90;;;;;;5072383;28;20710;-84
2022/09/29 03:45:57;;;;;;;48.50;17.40;;;8.10;99.90;;;;;;5031469;28;20204;-85
2022/09/29 03:48:29;;;;;;;59.50;14.73;;;8.10;99.90;;;;;;5053644;28;20212;-85
2022/09/29 03:50:57;;;;;;;62.03;16.52;;;8.10;99.90;;;;;;5034196;28;20204;-85
2022/09/29 03:53:25;;;;;;;59.28;15.63;;;8.00;99.90;;;;;;5034931;28;20204;-85
2022/09/29 03:55:55;;;;;;;41.45;15.10;;;8.00;99.90;;;;;;5053991;28;20201;-85
2022/09/29 03:58:23;;;;;;;59.85;16.30;;;7.90;99.90;;;;;;5045104;28;20572;-85
2022/09/29 04:00:51;;;;;;;28.50;14.25;;;7.90;99.90;;;;;;5054045;28;20215;-84
2022/09/29 04:03:19;;;;;;;56.20;15.80;;;8.00;99.90;;;;;;5057695;28;20694;-85
2022/09/29 04:05:48;;;;;;;62.72;15.65;;;8.00;99.90;;;;;;5075496;28;20260;-85
2022/09/29 04:08:16;;;;;;;65.45;16.23;;;7.90;99.90;;;;;;5076073;28;20227;-84
2022/09/29 04:10:46;;;;;;;67.32;14.98;;;7.80;99.90;;;;;;5057504;28;20261;-84
2022/09/29 04:13:15;;;;;;;79.20;16.58;;;7.80;99.90;;;;;;5075733;28;20234;-85
2022/09/29 04:15:43;;;;;;;74.35;16.70;;;7.80;99.90;;;;;;5076088;28;20203;-85
2022/09/29 04:18:14;;;;;;;72.25;16.90;;;7.80;99.90;;;;;;5041745;28;20204;-84
2022/09/29 04:20:42;;;;;;;30.83;17.77;;;7.80;99.90;;;;;;5076495;28;20204;-84
2022/09/29 04:23:11;;;;;;;33.20;17.45;;;7.90;99.90;;;;;;5075022;28;20204;-85
2022/09/29 04:25:39;;;;;;;29.83;15.40;;;8.00;99.90;;;;;;5057901;28;20211;-85
2022/09/29 04:28:07;;;;;;;42.97;16.63;;;8.10;99.90;;;;;;5074655;28;20694;-85
2022/09/29 04:30:37;;;;;;;47.53;17.30;;;8.00;99.90;;;;;;5041538;28;20204;-85
2022/09/29 04:33:05;;;;;;;75.50;18.13;;;7.90;99.90;;;;;;5075891;28;20203;-84
2022/09/29 04:35:53;;;;;;;73.35;16.88;;;7.90;99.90;;;;;;5066013;28;20637;-84
2022/09/29 04:38:21;;;;;;;26.35;15.18;;;7.80;99.90;;;;;;5050765;28;20197;-86
2022/09/29 04:40:49;;;;;;;29.15;16.60;;;7.90;99.90;;;;;;5054333;28;20197;-84
2022/09/29 04:43:18;;;;;;;23.88;15.98;;;8.00;99.90;;;;;;5037736;28;20208;-84
2022/09/29 04:45:47;;;;;;;53.03;20.45;;;7.90;99.90;;;;;;5033563;28;20196;-84
2022/09/29 04:48:16;;;;;;;28.48;16.33;;;7.90;99.90;;;;;;5075105;28;20208;-84
2022/09/29 04:50:44;;;;;;;39.17;16.98;;;7.80;99.90;;;;;;5074603;28;20219;-85
2022/09/29 04:53:16;;;;;;;33.33;14.45;;;7.70;99.90;;;;;;5062514;28;20201;-84
2022/09/29 04:55:44;;;;;;;100.05;17.60;;;7.80;99.90;;;;;;5059664;28;20199;-85
2022/09/29 04:58:12;;;;;;;42.53;16.42;;;7.80;99.90;;;;;;5062440;28;20196;-84
2022/09/29 05:00:40;;;;;;;39.20;18.67;;;7.80;99.90;;;;;;5071335;28;20204;-84
2022/09/29 05:03:10;;;;;;;34.30;16.63;;;7.90;99.90;;;;;;5059549;28;20230;-84
2022/09/29 05:05:38;;;;;;;36.72;17.08;;;8.00;99.90;;;;;;5072675;28;20204;-84
2022/09/29 05:08:06;;;;;;;40.13;15.75;;;8.10;99.90;;;;;;5041257;28;20223;-84
2022/09/29 05:10:35;;;;;;;101.00;15.05;;;8.10;99.90;;;;;;5073098;28;20204;-84
2022/09/29 05:13:03;;;;;;;30.90;14.32;;;7.90;99.90;;;;;;5074090;28;20223;-84
2022/09/29 05:15:31;;;;;;;25.17;15.38;;;7.90;99.90;;;;;;5057537;28;20203;-85
2022/09/29 05:18:02;;;;;;;96.43;18.70;;;8.10;99.90;;;;;;5039212;28;20196;-84
2022/09/29 05:20:32;;;;;;;26.10;14.57;;;8.00;99.90;;;;;;5068429;28;20192;-84
2022/09/29 05:23:00;;;;;;;45.25;13.70;;;8.10;99.90;;;;;;5071612;28;20192;-82
2022/09/29 05:25:28;;;;;;;20.95;14.35;;;8.00;99.90;;;;;;5055011;28;20215;-82
2022/09/29 05:27:57;;;;;;;29.15;13.85;;;8.00;99.90;;;;;;5038538;28;20566;-83
2022/09/29 05:30:45;;;;;;;20.95;13.95;;;8.20;99.90;;;;;;5049651;28;20200;-84
2022/09/29 05:33:13;;;;;;;22.02;13.00;;;8.20;99.90;;;;;;5057369;28;20199;-83
2022/09/29 05:35:43;;;;;;;21.77;16.17;;;8.20;99.90;;;;;;5074727;28;20223;-84
2022/09/29 05:38:11;;;;;;;31.40;13.60;;;8.20;99.90;;;;;;5054477;28;20211;-84
2022/09/29 05:40:39;;;;;;;20.00;15.52;;;8.20;99.90;;;;;;5058430;28;20203;-84
2022/09/29 05:43:07;;;;;;;21.45;15.43;;;8.30;99.90;;;;;;5063384;28;20599;-83
2022/09/29 05:45:45;;;;;;;43.65;12.95;;;8.30;99.90;;;;;;5068511;28;20204;-84
2022/09/29 05:48:13;;;;;;;17.98;10.75;;;8.30;99.90;;;;;;5075284;28;20195;-84
2022/09/29 05:50:42;;;;;;;18.27;12.68;;;8.10;99.90;;;;;;5036656;28;20193;-83
2022/09/29 05:53:10;;;;;;;16.42;12.90;;;8.30;99.90;;;;;;5055877;28;20211;-85
2022/09/29 05:55:39;;;;;;;14.45;10.65;;;8.30;99.90;;;;;;5074719;28;20651;-85
2022/09/29 05:58:07;;;;;;;23.23;12.52;;;8.10;99.90;;;;;;5074020;28;20735;-84
2022/09/29 06:00:35;;;;;;;22.65;12.57;;;8.10;99.90;;;;;;5056785;28;20200;-84
2022/09/29 06:03:04;;;;;;;19.30;11.25;;;8.00;99.90;;;;;;5065070;28;20192;-85
2022/09/29 06:05:32;;;;;;;28.85;12.55;;;8.10;99.90;;;;;;5074691;28;20219;-85
2022/09/29 06:08:02;;;;;;;35.95;11.38;;;8.20;99.90;;;;;;5064403;28;20212;-83
2022/09/29 06:10:30;;;;;;;52.50;13.02;;;8.20;99.90;;;;;;5076972;28;20188;-85
2022/09/29 06:12:58;;;;;;;22.67;12.20;;;8.10;99.90;;;;;;5040077;28;20231;-85
2022/09/29 06:15:27;;;;;;;16.15;11.00;;;8.20;99.90;;;;;;5075796;28;20192;-85
2022/09/29 06:17:55;;;;;;;25.30;12.50;;;8.30;99.90;;;;;;5072096;28;20651;-86
2022/09/29 06:20:24;;;;;;;48.10;11.70;;;8.50;99.90;;;;;;5038026;28;20196;-85
2022/09/29 06:22:54;;;;;;;22.15;11.32;;;8.50;99.90;;;;;;5072146;28;20588;-84
2022/09/29 06:25:23;;;;;;;28.85;12.57;;;8.60;99.90;;;;;;5055694;28;20212;-85
2022/09/29 06:27:51;;;;;;;21.55;13.20;;;8.70;99.90;;;;;;5067479;28;20223;-85
2022/09/29 06:30:20;;;;;;;39.88;12.10;;;8.70;99.90;;;;;;5055437;28;20192;-84
2022/09/29 06:32:48;;;;;;;31.90;12.77;;;8.70;99.90;;;;;;5073141;28;20203;-84
2022/09/29 06:38:01;;;;;;;19.35;12.98;;;8.70;99.90;;;;;;5073059;28;20191;-85
2022/09/29 06:40:31;;;;;;;17.73;10.23;;;8.70;99.90;;;;;;5058700;28;20200;-85
2022/09/29 06:43:01;;;;;;;19.08;9.88;;;8.60;99.90;;;;;;5054529;28;20196;-84
2022/09/29 06:45:29;;;;;;;14.10;10.18;;;8.50;99.90;;;;;;5054368;28;20574;-84
2022/09/29 06:47:59;;;;;;;12.52;10.02;;;8.60;99.90;;;;;;5072895;28;20211;-84
2022/09/29 06:50:26;;;;;;;21.15;9.60;;;8.60;99.90;;;;;;5071833;28;20570;-84
2022/09/29 06:52:54;;;;;;;14.10;10.07;;;8.70;99.90;;;;;;5071741;28;20199;-84
2022/09/29 06:55:22;;;;;;;16.13;10.88;;;8.70;99.90;;;;;;5072012;28;20203;-84
2022/09/29 06:57:52;;;;;;;14.45;10.90;;;8.80;99.90;;;;;;5043725;28;20196;-84
2022/09/29 07:00:20;;;;;;;23.52;11.60;;;9.00;99.90;;;;;;5073695;28;20701;-84
2022/09/29 07:02:48;;;;;;;17.23;12.15;;;9.10;99.90;;;;;;5037239;28;20654;-84
2022/09/29 07:05:16;;;;;;;17.00;10.60;;;9.10;99.90;;;;;;5054381;28;20220;-84
2022/09/29 07:07:44;;;;;;;13.23;10.48;;;9.00;99.90;;;;;;5053468;28;20234;-84
2022/09/29 07:10:12;;;;;;;14.15;9.90;;;9.00;99.90;;;;;;5054773;28;20203;-84
2022/09/29 07:12:40;;;;;;;13.02;10.35;;;9.10;99.90;;;;;;5038434;28;20240;-83
2022/09/29 07:15:10;;;;;;;18.63;9.93;;;9.10;99.90;;;;;;5054699;28;20206;-84
2022/09/29 07:17:39;;;;;;;14.90;9.90;;;9.20;99.90;;;;;;5045724;28;20196;-83
2022/09/29 07:20:07;;;;;;;15.25;8.10;;;9.20;99.90;;;;;;5037674;28;20203;-84
2022/09/29 07:22:35;;;;;;;11.57;9.25;;;9.10;99.90;;;;;;5050146;28;20207;-84
2022/09/29 07:25:04;;;;;;;23.00;9.32;;;9.20;99.90;;;;;;5068777;28;20223;-84
2022/09/29 07:27:33;;;;;;;13.73;9.85;;;9.30;99.90;;;;;;5067973;28;20203;-84
2022/09/29 07:30:01;;;;;;;13.50;9.13;;;9.30;99.90;;;;;;5071883;28;20203;-85
2022/09/29 07:32:32;;;;;;;11.00;9.88;;;9.50;99.90;;;;;;5069557;28;20685;-83
2022/09/29 07:35:00;;;;;;;10.48;8.00;;;9.60;99.90;;;;;;5066544;28;20192;-83
2022/09/29 07:37:29;;;;;;;10.80;8.80;;;9.70;99.90;;;;;;5048948;28;20215;-85
2022/09/29 07:39:57;;;;;;;10.13;9.02;;;9.70;99.90;;;;;;5074556;28;20204;-84
2022/09/29 07:42:25;;;;;;;9.02;8.20;;;9.70;99.90;;;;;;5075861;28;20204;-83
2022/09/29 07:44:56;;;;;;;10.63;7.95;;;9.70;99.90;;;;;;5065317;28;20199;-84
2022/09/29 07:47:24;;;;;;;11.00;8.48;;;9.80;99.90;;;;;;5092862;28;20646;-84
2022/09/29 07:49:53;;;;;;;11.55;7.90;;;9.60;99.90;;;;;;5044219;28;20199;-85
2022/09/29 07:52:21;;;;;;;12.05;8.70;;;9.70;99.90;;;;;;5058671;28;20196;-85
2022/09/29 07:54:49;;;;;;;11.40;8.80;;;9.60;99.90;;;;;;5058828;28;20238;-84
2022/09/29 07:57:17;;;;;;;9.13;8.23;;;9.70;99.90;;;;;;5076408;28;20212;-84
2022/09/29 07:59:45;;;;;;;10.52;9.00;;;9.80;99.90;;;;;;5039952;28;20204;-84
2022/09/29 08:02:13;;;;;;;14.93;9.40;;;10.00;99.90;;;;;;5038339;28;20213;-84
2022/09/29 08:04:43;;;;;;;12.43;9.32;;;10.00;99.90;;;;;;5047645;28;20500;-84
2022/09/29 08:07:12;;;;;;;10.40;8.10;;;10.20;99.90;;;;;;5073690;28;20220;-83
2022/09/29 08:09:40;;;;;;;8.23;7.43;;;10.40;99.90;;;;;;5075116;28;20207;-85
2022/09/29 08:12:08;;;;;;;12.23;8.05;;;10.50;99.90;;;;;;5036371;28;20237;-84
2022/09/29 08:14:38;;;;;;;10.70;9.68;;;10.10;99.90;;;;;;5037003;28;20193;-84
2022/09/29 08:17:06;;;;;;;10.65;8.70;;;10.10;99.90;;;;;;5043069;28;20596;-84
2022/09/29 08:19:34;;;;;;;14.27;10.65;;;10.20;99.90;;;;;;5039364;28;20201;-84
2022/09/29 08:22:06;;;;;;;8.63;7.82;;;10.20;99.90;;;;;;5058133;28;20325;-85
2022/09/29 08:24:38;;;;;;;10.40;8.23;;;10.40;99.90;;;;;;5072292;28;20204;-83
2022/09/29 08:27:07;;;;;;;13.93;9.55;;;10.40;99.90;;;;;;5054113;28;20613;-84
2022/09/29 08:29:35;;;;;;;12.65;9.05;;;10.60;99.90;;;;;;5038675;28;20194;-85
2022/09/29 08:32:03;;;;;;;92.13;61.65;;;10.60;99.90;;;;;;5051247;28;20296;-83
2022/09/29 08:34:31;;;;;;;15.05;11.68;;;10.60;99.90;;;;;;5070633;28;20196;-85
2022/09/29 08:36:59;;;;;;;13.85;9.10;;;10.70;99.90;;;;;;5051993;28;20197;-84
2022/09/29 08:39:27;;;;;;;12.93;7.63;;;10.60;99.90;;;;;;5045263;28;20224;-84
2022/09/29 08:42:05;;;;;;;7.30;6.68;;;10.60;99.90;;;;;;5043879;28;20192;-85
2022/09/29 08:44:40;;;;;;;7.13;6.53;;;10.70;99.90;;;;;;5036072;28;20196;-84
2022/09/29 08:47:17;;;;;;;7.00;6.35;;;10.70;99.90;;;;;;5056173;28;20611;-84
2022/09/29 08:49:49;;;;;;;20.05;10.07;;;10.60;99.90;;;;;;5034967;28;20188;-84
2022/09/29 08:52:22;;;;;;;7.32;6.20;;;10.60;99.90;;;;;;5052875;28;20204;-85
2022/09/29 08:54:55;;;;;;;6.47;5.97;;;11.00;99.90;;;;;;5054642;28;20691;-84
2022/09/29 08:57:25;;;;;;;6.47;5.03;;;11.20;99.90;;;;;;5053258;28;20181;-84
2022/09/29 08:59:56;;;;;;;7.85;6.25;;;11.60;99.90;;;;;;5054112;28;20208;-85
2022/09/29 09:02:48;;;;;;;9.30;5.55;;;11.50;99.90;;;;;;5049793;28;20197;-85
2022/09/29 09:05:41;;;;;;;10.40;5.40;;;11.60;99.90;;;;;;5054767;28;20630;-84
2022/09/29 09:08:20;;;;;;;7.32;5.38;;;11.70;99.90;;;;;;5053817;28;20228;-84
2022/09/29 09:10:54;;;;;;;5.60;5.10;;;11.70;99.90;;;;;;5043409;28;20196;-85
2022/09/29 09:13:41;;;;;;;6.00;5.40;;;12.00;99.90;;;;;;5051245;28;20219;-84
2022/09/29 09:16:21;;;;;;;5.37;4.87;;;12.10;99.90;;;;;;5054885;28;20196;-84
2022/09/29 09:19:04;;;;;;;8.18;5.35;;;12.20;99.90;;;;;;5055397;28;20619;-84
2022/09/29 09:21:40;;;;;;;8.93;4.90;;;12.00;99.90;;;;;;5053589;28;20209;-85
2022/09/29 09:24:22;;;;;;;5.55;5.13;;;12.10;99.90;;;;;;5063446;28;20606;-85
2022/09/29 09:26:53;;;;;;;6.10;4.77;;;12.10;99.90;;;;;;5064339;28;20591;-85
2022/09/29 09:29:29;;;;;;;6.43;5.83;;;12.50;99.90;;;;;;5053931;28;20623;-85
2022/09/29 09:32:01;;;;;;;8.68;5.13;;;12.40;99.90;;;;;;5070103;28;20971;-84
2022/09/29 09:34:34;;;;;;;7.97;6.03;;;12.30;99.90;;;;;;5056157;28;20285;-84
2022/09/29 09:37:08;;;;;;;5.47;4.97;;;12.10;99.90;;;;;;5044492;28;20608;-84
2022/09/29 09:39:40;;;;;;;7.00;6.00;;;12.40;99.90;;;;;;5055428;28;20196;-85
2022/09/29 09:42:14;;;;;;;11.47;8.50;;;12.40;99.90;;;;;;5070252;28;20200;-86
2022/09/29 09:44:50;;;;;;;6.77;6.10;;;12.50;99.90;;;;;;5046581;28;20558;-85
2022/09/29 09:47:25;;;;;;;7.23;5.60;;;12.90;99.90;;;;;;5054695;28;20977;-86
2022/09/29 09:49:57;;;;;;;8.57;7.87;;;12.80;99.90;;;;;;5053705;28;20577;-86
2022/09/29 09:52:31;;;;;;;24.47;14.10;;;13.00;99.90;;;;;;5048545;28;20685;-85
2022/09/29 09:55:04;;;;;;;7.70;7.10;;;13.10;99.90;;;;;;5054076;28;20585;-86
2022/09/29 09:57:59;;;;;;;10.33;7.30;;;13.00;99.90;;;;;;5069281;28;20623;-86
2022/09/29 10:00:43;;;;;;;8.70;6.20;;;12.80;99.90;;;;;;5056161;28;20602;-86
2022/09/29 10:03:13;;;;;;;18.60;11.40;;;12.80;99.90;;;;;;5051130;28;20547;-86
2022/09/29 10:05:53;;;;;;;6.43;5.80;;;13.20;99.90;;;;;;5055870;28;20626;-87
2022/09/29 10:08:25;;;;;;;7.40;6.27;;;13.40;99.90;;;;;;5050098;28;20607;-86
2022/09/29 10:10:54;;;;;;;16.73;11.23;;;13.40;99.90;;;;;;5052463;28;20869;-85
2022/09/29 10:13:25;;;;;;;6.40;5.60;;;13.50;99.90;;;;;;5067908;28;20617;-85
2022/09/29 10:15:58;;;;;;;8.77;5.70;;;13.30;99.90;;;;;;5069812;28;20921;-85
2022/09/29 10:18:31;;;;;;;9.90;6.50;;;13.30;99.90;;;;;;5053197;28;20974;-86
2022/09/29 10:21:00;;;;;;;12.60;5.80;;;13.40;99.90;;;;;;5063825;28;20595;-86
2022/09/29 10:23:31;;;;;;;27.30;15.03;;;13.40;99.90;;;;;;5062757;28;20596;-86
2022/09/29 10:26:05;;;;;;;48.97;21.00;;;13.60;99.90;;;;;;5046763;28;20626;-85
2022/09/29 10:28:48;;;;;;;7.87;6.97;;;13.70;99.90;;;;;;5050227;28;20591;-86
2022/09/29 10:31:23;;;;;;;15.27;11.03;;;13.70;99.90;;;;;;5049428;28;20605;-86
2022/09/29 10:33:55;;;;;;;12.93;9.20;;;13.40;99.90;;;;;;5061121;28;20610;-86
2022/09/29 10:36:25;;;;;;;12.20;7.50;;;13.40;99.90;;;;;;5043621;28;20603;-86
2022/09/29 10:38:54;;;;;;;9.27;6.63;;;13.60;99.90;;;;;;5071641;28;20618;-85
2022/09/29 10:41:24;;;;;;;10.30;6.37;;;13.60;99.90;;;;;;5056691;28;20610;-85
2022/09/29 10:43:55;;;;;;;6.17;5.57;;;13.40;99.90;;;;;;5055273;28;20625;-85
2022/09/29 10:46:49;;;;;;;10.60;6.53;;;13.70;99.90;;;;;;5071698;28;20608;-85
2022/09/29 10:49:19;;;;;;;7.73;5.43;;;13.80;99.90;;;;;;5054457;28;20584;-85
2022/09/29 10:51:55;;;;;;;8.57;5.40;;;13.90;99.90;;;;;;5067457;28;20618;-85
2022/09/29 10:54:26;;;;;;;6.13;5.40;;;13.70;99.90;;;;;;5033495;28;20613;-85
2022/09/29 10:57:25;;;;;;;4.57;4.17;;;13.90;99.90;;;;;;5047987;28;20631;-86
2022/09/29 10:59:55;;;;;;;10.30;4.97;;;14.40;99.90;;;;;;5059519;28;20960;-85
2022/09/29 11:02:32;;;;;;;5.87;4.40;;;15.10;99.90;;;;;;5060789;28;20633;-86
2022/09/29 11:05:05;;;;;;;5.20;4.70;;;14.50;99.90;;;;;;5073284;28;20581;-86
2022/09/29 11:07:34;;;;;;;4.80;4.30;;;15.10;99.90;;;;;;5045238;28;20645;-85
2022/09/29 11:10:02;;;;;;;5.13;4.63;;;15.30;99.90;;;;;;5044289;28;20618;-85
2022/09/29 11:12:33;;;;;;;5.37;4.33;;;14.80;99.90;;;;;;5052238;28;20678;-85
2022/09/29 11:15:01;;;;;;;9.17;4.97;;;14.80;99.90;;;;;;5056892;28;20969;-85
2022/09/29 11:17:36;;;;;;;5.27;4.50;;;15.00;99.90;;;;;;5068630;28;21083;-85
2022/09/29 11:20:12;;;;;;;4.80;4.50;;;15.00;99.90;;;;;;5052820;28;20580;-86
2022/09/29 11:23:00;;;;;;;5.80;5.20;;;15.10;99.90;;;;;;5052919;28;20618;-85
2022/09/29 11:26:00;;;;;;;7.80;5.47;;;15.60;99.90;;;;;;5049997;28;20573;-84
2022/09/29 11:28:47;;;;;;;4.30;3.80;;;15.60;99.90;;;;;;5047956;28;20666;-85
2022/09/29 11:31:30;;;;;;;6.10;3.97;;;15.20;99.90;;;;;;5051862;28;20666;-86
2022/09/29 11:34:12;;;;;;;5.10;3.50;;;15.40;99.90;;;;;;5056949;28;20619;-86
2022/09/29 11:36:46;;;;;;;4.87;3.23;;;15.40;99.90;;;;;;5040117;28;20607;-86
2022/09/29 11:39:26;;;;;;;3.93;3.50;;;15.40;99.90;;;;;;5059444;28;20712;-86
2022/09/29 11:42:07;;;;;;;3.93;3.60;;;15.50;99.90;;;;;;5052014;28;20979;-87
2022/09/29 11:45:03;;;;;;;4.47;3.50;;;15.60;99.90;;;;;;5055010;28;20603;-86
2022/09/29 11:47:55;;;;;;;3.77;3.40;;;16.00;99.90;;;;;;5035796;28;20667;-85
2022/09/29 11:50:32;;;;;;;4.60;3.80;;;16.40;99.90;;;;;;5050942;28;21187;-86
2022/09/29 11:53:18;;;;;;;3.90;3.60;;;15.90;99.90;;;;;;5052984;28;20963;-86
2022/09/29 11:56:13;;;;;;;4.03;3.73;;;14.90;99.90;;;;;;5042551;28;20608;-87
2022/09/29 11:58:53;;;;;;;5.60;4.83;;;15.10;99.90;;;;;;5035334;28;20596;-85
2022/09/29 12:01:40;;;;;;;4.27;3.77;;;15.30;99.90;;;;;;5042373;28;20997;-87
2022/09/29 12:04:19;;;;;;;5.87;4.20;;;15.50;99.90;;;;;;5036641;28;20596;-87
2022/09/29 12:06:56;;;;;;;4.83;4.10;;;15.60;99.90;;;;;;5048911;28;20629;-86
2022/09/29 12:09:43;;;;;;;6.80;4.47;;;15.60;99.90;;;;;;5049065;28;20591;-86
2022/09/29 12:12:18;;;;;;;9.80;4.40;;;15.80;99.90;;;;;;5052052;28;20670;-86
2022/09/29 12:15:01;;;;;;;3.97;3.53;;;15.90;99.90;;;;;;5052952;28;20628;-85
2022/09/29 12:17:34;;;;;;;5.53;4.03;;;15.50;99.90;;;;;;5052994;28;21032;-86
2022/09/29 12:20:06;;;;;;;3.60;3.30;;;15.70;99.90;;;;;;5056724;28;20614;-87
2022/09/29 12:22:35;;;;;;;6.33;3.40;;;16.10;99.90;;;;;;5056603;28;20618;-87
2022/09/29 12:25:04;;;;;;;5.63;3.43;;;15.90;99.90;;;;;;5050494;28;20635;-87
2022/09/29 12:27:44;;;;;;;7.77;3.43;;;16.00;99.90;;;;;;5043654;28;21029;-89
2022/09/29 12:30:20;;;;;;;5.77;5.17;;;16.00;99.90;;;;;;5054614;28;20599;-85
2022/09/29 12:32:56;;;;;;;5.17;4.03;;;15.90;99.90;;;;;;5055705;28;20586;-86
2022/09/29 12:35:31;;;;;;;6.40;5.90;;;16.00;99.90;;;;;;5057643;28;20599;-86
2022/09/29 12:38:14;;;;;;;3.83;3.13;;;15.50;99.90;;;;;;5073197;28;20562;-88
2022/09/29 12:40:47;;;;;;;4.97;3.90;;;15.60;99.90;;;;;;5049128;28;20603;-87
2022/09/29 12:43:22;;;;;;;6.07;3.67;;;15.90;99.90;;;;;;5055913;28;20614;-86
2022/09/29 12:45:57;;;;;;;4.27;3.30;;;15.80;99.90;;;;;;5055297;28;20594;-88
2022/09/29 12:48:40;;;;;;;4.67;3.20;;;15.60;99.90;;;;;;5054681;28;21228;-86
2022/09/29 12:51:13;;;;;;;6.90;5.20;;;15.70;99.90;;;;;;5060790;28;20598;-86
2022/09/29 12:53:53;;;;;;;3.17;2.97;;;15.90;99.90;;;;;;5055922;28;20611;-86
2022/09/29 12:56:27;;;;;;;3.40;3.10;;;15.50;99.90;;;;;;5067543;28;20583;-85
2022/09/29 12:59:03;;;;;;;7.27;3.57;;;15.20;99.90;;;;;;5055205;28;20601;-87
2022/09/29 13:01:35;;;;;;;4.50;3.47;;;15.40;99.90;;;;;;5056180;28;20555;-87
2022/09/29 13:04:34;;;;;;;7.25;3.95;;;15.70;99.90;;;;;;5050815;28;20714;-85
2022/09/29 13:07:35;;;;;;;4.87;3.20;;;15.60;99.90;;;;;;5052029;28;20307;-87
2022/09/29 13:10:26;;;;;;;7.47;2.73;;;15.40;99.90;;;;;;5057951;28;20622;-87
2022/09/29 13:13:21;;;;;;;3.10;2.90;;;15.40;99.90;;;;;;5049202;28;20673;-87